Time;durP1;ratioP1;P1;durP2;ratioP2;P2;SDS_P1;SDS_P2;PMS_P1;PMS_P2;Temp;Humidity;BMP_temperature;BMP_pressure;BME280_temperature;BME280_humidity;BME280_pressure;Samples;Min_cycle;Max_cycle;Signal;HPM_P1;HPM_P2
2023/11/27 00:01:19;;;;;;;7.87;5.20;;;4.30;99.90;;;;;;5077064;28;20199;-80
2023/11/27 00:03:46;;;;;;;8.80;5.40;;;4.30;99.90;;;;;;5074784;28;20648;-81
2023/11/27 00:06:12;;;;;;;10.57;5.57;;;4.30;99.90;;;;;;5069999;28;20569;-79
2023/11/27 00:08:39;;;;;;;8.37;5.43;;;4.30;99.90;;;;;;5074034;28;20229;-81
2023/11/27 00:11:07;;;;;;;8.53;5.57;;;4.30;99.90;;;;;;5077103;28;20199;-81
2023/11/27 00:13:33;;;;;;;8.77;5.60;;;4.30;99.90;;;;;;5062459;28;20203;-81
2023/11/27 00:16:00;;;;;;;8.77;5.77;;;4.30;99.90;;;;;;5068498;28;20204;-80
2023/11/27 00:18:28;;;;;;;9.87;5.87;;;4.40;99.90;;;;;;5076923;28;20704;-78
2023/11/27 00:20:55;;;;;;;8.37;5.87;;;4.40;99.90;;;;;;5065648;28;20203;-80
2023/11/27 00:23:23;;;;;;;10.90;6.07;;;4.40;99.90;;;;;;5068099;28;20220;-81
2023/11/27 00:25:50;;;;;;;9.77;5.33;;;4.40;99.90;;;;;;5069568;28;20206;-80
2023/11/27 00:28:17;;;;;;;9.03;5.60;;;4.40;99.90;;;;;;5079000;28;20309;-80
2023/11/27 00:30:45;;;;;;;9.00;5.53;;;4.40;99.90;;;;;;5077372;28;20202;-82
2023/11/27 00:33:12;;;;;;;8.87;5.40;;;4.50;99.90;;;;;;5086328;28;20226;-80
2023/11/27 00:35:40;;;;;;;8.90;5.50;;;4.50;99.90;;;;;;5080983;28;20214;-79
2023/11/27 00:38:08;;;;;;;7.63;4.70;;;4.50;99.90;;;;;;5074550;28;20233;-82
2023/11/27 00:40:37;;;;;;;7.47;4.70;;;4.40;99.90;;;;;;5077879;28;20227;-83
2023/11/27 00:43:04;;;;;;;5.77;4.10;;;4.40;99.90;;;;;;5080648;28;20226;-80
2023/11/27 00:45:32;;;;;;;5.53;3.80;;;4.50;99.90;;;;;;5077849;28;20203;-82
2023/11/27 00:48:00;;;;;;;5.13;3.50;;;4.50;99.90;;;;;;5081183;28;20230;-82
2023/11/27 00:50:26;;;;;;;5.67;3.67;;;4.50;99.90;;;;;;5070940;28;20209;-81
2023/11/27 00:52:55;;;;;;;4.93;2.70;;;4.70;99.90;;;;;;5081670;28;20694;-82
2023/11/27 00:55:22;;;;;;;3.27;2.70;;;4.40;99.90;;;;;;5083371;28;20198;-82
2023/11/27 00:57:48;;;;;;;3.97;2.80;;;4.40;99.90;;;;;;5080559;28;20248;-82
2023/11/27 01:00:17;;;;;;;4.70;2.30;;;4.40;99.90;;;;;;5077393;28;20289;-81
2023/11/27 01:02:45;;;;;;;4.47;2.47;;;4.40;99.90;;;;;;5076648;28;20271;-79
2023/11/27 01:05:14;;;;;;;4.47;2.30;;;4.40;99.90;;;;;;5078375;28;20480;-81
2023/11/27 01:07:41;;;;;;;3.50;2.13;;;4.40;99.90;;;;;;5076305;28;20238;-81
2023/11/27 01:10:10;;;;;;;2.77;2.13;;;4.40;99.90;;;;;;5070569;28;20202;-80
2023/11/27 01:12:42;;;;;;;3.73;2.27;;;4.40;99.90;;;;;;5069842;28;20593;-80
2023/11/27 01:15:11;;;;;;;4.00;2.53;;;4.40;99.90;;;;;;5069986;28;20203;-80
2023/11/27 01:17:37;;;;;;;3.47;2.23;;;4.40;99.90;;;;;;5073068;28;20231;-80
2023/11/27 01:20:05;;;;;;;6.27;2.93;;;4.40;99.90;;;;;;5070067;28;20724;-79
2023/11/27 01:22:34;;;;;;;4.13;2.30;;;4.40;99.90;;;;;;5079316;28;20260;-79
2023/11/27 01:25:01;;;;;;;3.27;2.30;;;4.40;99.90;;;;;;5069193;28;20205;-80
2023/11/27 01:27:29;;;;;;;3.83;2.70;;;4.30;99.90;;;;;;5068335;28;20204;-79
2023/11/27 01:29:56;;;;;;;2.83;2.50;;;4.30;99.90;;;;;;5068878;28;20666;-80
2023/11/27 01:32:24;;;;;;;3.83;2.87;;;4.30;99.90;;;;;;5068823;28;20646;-80
2023/11/27 01:34:51;;;;;;;3.97;2.70;;;4.30;99.90;;;;;;5073745;28;20317;-78
2023/11/27 01:37:18;;;;;;;3.97;3.20;;;4.30;99.90;;;;;;5080139;28;20574;-81
2023/11/27 01:39:45;;;;;;;4.73;3.77;;;4.30;99.90;;;;;;5076924;28;20224;-81
2023/11/27 01:42:13;;;;;;;5.73;3.43;;;4.30;99.90;;;;;;5074020;28;20199;-81
2023/11/27 01:44:41;;;;;;;4.13;3.20;;;4.30;99.90;;;;;;5073537;28;20232;-80
2023/11/27 01:47:09;;;;;;;5.40;3.87;;;4.30;99.90;;;;;;5076478;28;20667;-79
2023/11/27 01:49:38;;;;;;;5.07;3.80;;;4.30;99.90;;;;;;5071664;28;20249;-81
2023/11/27 01:52:06;;;;;;;5.43;3.87;;;4.40;99.90;;;;;;5076435;28;20232;-81
2023/11/27 01:54:36;;;;;;;5.93;3.63;;;4.40;99.90;;;;;;5069918;28;20212;-80
2023/11/27 01:57:04;;;;;;;6.40;3.90;;;4.30;99.90;;;;;;5073988;28;20214;-81
2023/11/27 01:59:33;;;;;;;4.67;3.53;;;4.30;99.90;;;;;;5071034;28;20313;-80
2023/11/27 02:02:01;;;;;;;6.17;4.30;;;4.40;99.90;;;;;;5073455;28;20270;-80
2023/11/27 02:04:28;;;;;;;5.40;4.00;;;4.30;99.90;;;;;;5068190;28;20218;-80
2023/11/27 02:06:55;;;;;;;5.37;4.10;;;4.30;99.90;;;;;;5073160;28;20202;-80
2023/11/27 02:09:22;;;;;;;5.57;3.70;;;4.30;99.90;;;;;;5068615;28;20280;-80
2023/11/27 02:11:50;;;;;;;4.97;3.80;;;4.30;99.90;;;;;;5081817;28;20605;-80
2023/11/27 02:14:17;;;;;;;6.23;4.10;;;4.30;99.90;;;;;;5070559;28;20195;-80
2023/11/27 02:16:44;;;;;;;4.90;4.10;;;4.30;99.90;;;;;;5066542;28;20203;-80
2023/11/27 02:19:13;;;;;;;7.37;4.53;;;4.30;99.90;;;;;;5069627;28;20218;-81
2023/11/27 02:21:40;;;;;;;5.83;3.70;;;4.30;99.90;;;;;;5072858;28;20202;-80
2023/11/27 02:24:09;;;;;;;5.47;4.13;;;4.30;99.90;;;;;;5072805;28;20696;-80
2023/11/27 02:26:35;;;;;;;4.73;4.00;;;4.30;99.90;;;;;;5071737;28;20211;-80
2023/11/27 02:29:03;;;;;;;5.77;4.43;;;4.30;99.90;;;;;;5076285;28;20229;-80
2023/11/27 02:31:30;;;;;;;4.77;3.63;;;4.20;99.90;;;;;;5078210;28;20214;-79
2023/11/27 02:33:57;;;;;;;6.40;3.83;;;4.20;99.90;;;;;;5079790;28;20753;-79
2023/11/27 02:36:25;;;;;;;5.97;4.37;;;4.20;99.90;;;;;;5080926;28;20646;-80
2023/11/27 02:38:52;;;;;;;4.60;3.97;;;4.20;99.90;;;;;;5085480;28;20276;-79
2023/11/27 02:41:20;;;;;;;4.33;3.57;;;4.20;99.90;;;;;;5072124;28;20206;-82
2023/11/27 02:43:47;;;;;;;6.23;4.27;;;4.10;99.90;;;;;;5078940;28;20206;-82
2023/11/27 02:46:15;;;;;;;4.60;3.63;;;4.10;99.90;;;;;;5080897;28;20210;-79
2023/11/27 02:48:42;;;;;;;4.67;3.80;;;4.10;99.90;;;;;;5071143;28;20233;-80
2023/11/27 02:51:09;;;;;;;5.73;4.10;;;4.10;99.90;;;;;;5072918;28;20213;-81
2023/11/27 02:53:36;;;;;;;7.03;4.37;;;4.10;99.90;;;;;;5068382;28;20211;-80
2023/11/27 02:56:03;;;;;;;7.47;4.60;;;4.10;99.90;;;;;;5069779;28;20197;-82
2023/11/27 02:58:32;;;;;;;5.37;4.10;;;4.10;99.90;;;;;;5075546;28;20222;-82
2023/11/27 03:00:59;;;;;;;5.50;3.90;;;4.10;99.90;;;;;;5071554;28;20267;-82
2023/11/27 03:03:26;;;;;;;5.33;4.20;;;4.10;99.90;;;;;;5066519;28;20589;-81
2023/11/27 03:05:53;;;;;;;7.60;5.33;;;4.10;99.90;;;;;;5071305;28;20225;-82
2023/11/27 03:08:19;;;;;;;7.93;4.80;;;4.10;99.90;;;;;;5075697;28;20236;-81
2023/11/27 03:10:47;;;;;;;8.60;5.83;;;4.10;99.90;;;;;;5072370;28;20206;-81
2023/11/27 03:13:13;;;;;;;10.13;6.13;;;4.10;99.90;;;;;;5071398;28;20202;-82
2023/11/27 03:15:41;;;;;;;8.83;5.90;;;4.10;99.90;;;;;;5068832;28;20205;-81
2023/11/27 03:18:08;;;;;;;9.80;6.53;;;4.10;99.90;;;;;;5068153;28;20215;-80
2023/11/27 03:20:35;;;;;;;10.47;6.47;;;4.10;99.90;;;;;;5073709;28;20203;-81
2023/11/27 03:23:02;;;;;;;10.60;7.00;;;4.10;99.90;;;;;;5065997;28;20206;-83
2023/11/27 03:25:29;;;;;;;10.53;6.60;;;4.10;99.90;;;;;;5072402;28;20201;-82
2023/11/27 03:27:56;;;;;;;11.87;7.53;;;4.10;99.90;;;;;;5071465;28;20597;-82
2023/11/27 03:30:22;;;;;;;12.37;7.60;;;4.10;99.90;;;;;;5066257;28;20217;-81
2023/11/27 03:32:51;;;;;;;15.53;8.57;;;4.10;99.90;;;;;;5067041;28;20213;-80
2023/11/27 03:35:18;;;;;;;14.47;8.63;;;4.10;99.90;;;;;;5065964;28;20234;-83
2023/11/27 03:37:45;;;;;;;12.97;8.20;;;4.10;99.90;;;;;;5070928;28;20229;-81
2023/11/27 03:40:12;;;;;;;14.03;8.27;;;4.10;99.90;;;;;;5069540;28;20202;-83
2023/11/27 03:42:38;;;;;;;14.57;8.53;;;4.10;99.90;;;;;;5076984;28;20198;-79
2023/11/27 03:45:06;;;;;;;16.30;8.83;;;4.10;99.90;;;;;;5079441;28;20225;-83
2023/11/27 03:47:34;;;;;;;14.67;8.67;;;4.10;99.90;;;;;;5071592;28;20603;-80
2023/11/27 03:50:02;;;;;;;14.70;8.10;;;4.10;99.90;;;;;;5066811;28;20569;-81
2023/11/27 03:52:30;;;;;;;15.43;9.27;;;4.10;99.90;;;;;;5072824;28;20252;-81
2023/11/27 03:54:56;;;;;;;15.90;8.97;;;4.10;99.90;;;;;;5072908;28;20234;-82
2023/11/27 03:57:24;;;;;;;15.90;8.47;;;4.10;99.90;;;;;;5071527;28;20662;-80
2023/11/27 03:59:51;;;;;;;18.20;9.37;;;4.10;99.90;;;;;;5069549;28;20199;-83
2023/11/27 04:02:18;;;;;;;14.40;9.00;;;4.10;99.90;;;;;;5072262;28;20201;-81
2023/11/27 04:04:45;;;;;;;16.17;9.17;;;4.10;99.90;;;;;;5074111;28;20222;-81
2023/11/27 04:07:13;;;;;;;15.40;8.97;;;4.10;99.90;;;;;;5083201;28;20209;-82
2023/11/27 04:09:40;;;;;;;17.17;9.23;;;4.10;99.90;;;;;;5078339;28;20202;-83
2023/11/27 04:12:07;;;;;;;16.57;9.53;;;4.20;99.90;;;;;;5077021;28;20612;-82
2023/11/27 04:14:34;;;;;;;15.57;9.23;;;4.20;99.90;;;;;;5079132;28;20208;-78
2023/11/27 04:17:03;;;;;;;15.23;9.13;;;4.20;99.90;;;;;;5075918;28;20293;-84
2023/11/27 04:19:31;;;;;;;16.67;9.03;;;4.20;99.90;;;;;;5076676;28;20658;-83
2023/11/27 04:21:58;;;;;;;33.70;19.47;;;4.20;99.90;;;;;;5079782;28;20216;-83
2023/11/27 04:24:26;;;;;;;18.83;10.67;;;4.20;99.90;;;;;;5078450;28;20763;-81
2023/11/27 04:26:53;;;;;;;19.37;9.60;;;4.20;99.90;;;;;;5065200;28;20606;-82
2023/11/27 04:29:21;;;;;;;17.17;9.30;;;4.20;99.90;;;;;;5080866;28;20226;-81
2023/11/27 04:31:49;;;;;;;22.77;10.30;;;4.20;99.90;;;;;;5068976;28;20256;-81
2023/11/27 04:34:17;;;;;;;16.80;9.57;;;4.20;99.90;;;;;;5083055;28;20622;-81
2023/11/27 04:36:44;;;;;;;17.03;9.43;;;4.20;99.90;;;;;;5069403;28;20206;-80
2023/11/27 04:39:11;;;;;;;16.57;9.03;;;4.20;99.90;;;;;;5070784;28;20226;-80
2023/11/27 04:41:42;;;;;;;15.77;8.97;;;4.20;99.90;;;;;;5080508;28;20204;-80
2023/11/27 04:44:09;;;;;;;15.63;9.07;;;4.30;99.90;;;;;;5079120;28;20217;-79
2023/11/27 04:46:36;;;;;;;20.37;9.37;;;4.30;99.90;;;;;;5064488;28;20210;-80
2023/11/27 04:49:03;;;;;;;16.93;9.43;;;4.20;99.90;;;;;;5064132;28;20223;-81
2023/11/27 04:51:31;;;;;;;14.40;8.30;;;4.20;99.90;;;;;;5067345;28;20195;-80
2023/11/27 04:53:57;;;;;;;16.73;9.30;;;4.20;99.90;;;;;;5072320;28;20204;-80
2023/11/27 04:56:24;;;;;;;15.30;9.03;;;4.20;99.90;;;;;;5079294;28;20198;-80
2023/11/27 04:58:53;;;;;;;15.90;9.07;;;4.20;99.90;;;;;;5079315;28;20232;-82
2023/11/27 05:01:19;;;;;;;20.43;9.53;;;4.30;99.90;;;;;;5079634;28;20209;-81
2023/11/27 05:03:47;;;;;;;13.93;8.33;;;4.20;99.90;;;;;;5076790;28;20229;-82
2023/11/27 05:06:15;;;;;;;18.13;9.40;;;4.20;99.90;;;;;;5076344;28;20207;-81
2023/11/27 05:08:42;;;;;;;16.03;8.90;;;4.30;99.90;;;;;;5070268;28;20237;-82
2023/11/27 05:11:09;;;;;;;18.17;8.90;;;4.30;99.90;;;;;;5070546;28;20206;-82
2023/11/27 05:13:35;;;;;;;16.10;9.43;;;4.20;99.90;;;;;;5076281;28;20583;-81
2023/11/27 05:16:04;;;;;;;14.70;9.20;;;4.20;99.90;;;;;;5072047;28;20206;-81
2023/11/27 05:18:33;;;;;;;18.17;8.93;;;4.20;99.90;;;;;;5077803;28;20586;-79
2023/11/27 05:21:00;;;;;;;15.27;9.73;;;4.20;99.90;;;;;;5075539;28;20198;-81
2023/11/27 05:23:26;;;;;;;13.33;8.37;;;4.20;99.90;;;;;;5076356;28;20199;-82
2023/11/27 05:25:53;;;;;;;19.23;9.50;;;4.20;99.90;;;;;;5077096;28;20233;-81
2023/11/27 05:28:20;;;;;;;16.87;10.07;;;4.20;99.90;;;;;;5077106;28;20228;-81
2023/11/27 05:30:47;;;;;;;17.60;9.13;;;4.20;99.90;;;;;;5075911;28;20319;-81
2023/11/27 05:33:16;;;;;;;16.90;9.33;;;4.20;99.90;;;;;;5077982;28;20208;-81
2023/11/27 05:35:43;;;;;;;14.50;8.63;;;4.20;99.90;;;;;;5069986;28;20294;-80
2023/11/27 05:38:10;;;;;;;15.97;9.03;;;4.10;99.90;;;;;;5069922;28;20229;-81
2023/11/27 05:40:37;;;;;;;17.57;8.77;;;4.10;99.90;;;;;;5065466;28;20194;-81
2023/11/27 05:43:05;;;;;;;18.40;9.60;;;4.10;99.90;;;;;;5070521;28;20209;-82
2023/11/27 05:45:32;;;;;;;16.30;8.67;;;4.10;99.90;;;;;;5066915;28;20218;-80
2023/11/27 05:47:58;;;;;;;16.47;9.37;;;4.10;99.90;;;;;;5064938;28;20298;-82
2023/11/27 05:50:27;;;;;;;15.27;8.67;;;4.10;99.90;;;;;;5068222;28;20205;-82
2023/11/27 05:52:54;;;;;;;16.63;9.50;;;4.10;99.90;;;;;;5072520;28;20216;-82
2023/11/27 05:55:21;;;;;;;13.50;8.30;;;4.00;99.90;;;;;;5066268;28;20205;-82
2023/11/27 05:57:48;;;;;;;17.20;9.47;;;4.10;99.90;;;;;;5068646;28;20782;-81
2023/11/27 06:00:15;;;;;;;15.10;8.70;;;4.10;99.90;;;;;;5073178;28;20198;-81
2023/11/27 06:02:42;;;;;;;14.10;8.40;;;4.10;99.90;;;;;;5086692;28;20579;-80
2023/11/27 06:05:09;;;;;;;15.27;8.80;;;4.00;99.90;;;;;;5078937;28;20214;-81
2023/11/27 06:07:38;;;;;;;14.27;7.93;;;4.10;99.90;;;;;;5076540;28;20232;-82
2023/11/27 06:10:06;;;;;;;14.33;8.67;;;4.10;99.90;;;;;;5076473;28;20209;-81
2023/11/27 06:12:34;;;;;;;13.07;7.60;;;4.20;99.90;;;;;;5072517;28;20214;-82
2023/11/27 06:15:01;;;;;;;13.93;7.70;;;4.30;99.90;;;;;;5076898;28;20216;-81
2023/11/27 06:17:29;;;;;;;12.50;7.80;;;4.20;99.90;;;;;;5075777;28;20205;-80
2023/11/27 06:19:55;;;;;;;11.97;7.73;;;4.20;99.90;;;;;;5077378;28;20198;-82
2023/11/27 06:22:23;;;;;;;14.03;8.40;;;4.20;99.90;;;;;;5078395;28;20204;-82
2023/11/27 06:24:51;;;;;;;16.47;8.37;;;4.30;99.90;;;;;;5072024;28;20347;-83
2023/11/27 06:27:18;;;;;;;14.00;8.23;;;4.30;99.90;;;;;;5075999;28;20199;-83
2023/11/27 06:29:45;;;;;;;14.27;7.07;;;4.30;99.90;;;;;;5079327;28;20195;-82
2023/11/27 06:32:11;;;;;;;11.23;7.67;;;4.30;99.90;;;;;;5078752;28;20209;-82
2023/11/27 06:34:38;;;;;;;11.57;6.77;;;4.40;99.90;;;;;;5076473;28;20198;-82
2023/11/27 06:37:05;;;;;;;15.03;7.73;;;4.40;99.90;;;;;;5073635;28;20209;-80
2023/11/27 06:39:33;;;;;;;13.40;7.70;;;4.40;99.90;;;;;;5069788;28;20234;-82
2023/11/27 06:42:01;;;;;;;12.53;7.57;;;4.40;99.90;;;;;;5067744;28;20214;-81
2023/11/27 06:44:28;;;;;;;12.80;8.37;;;4.40;99.90;;;;;;5067919;28;20214;-81
2023/11/27 06:46:55;;;;;;;11.77;7.47;;;4.40;99.90;;;;;;5069795;28;20203;-80
2023/11/27 06:49:22;;;;;;;12.13;7.23;;;4.30;99.90;;;;;;5068847;28;20303;-80
2023/11/27 06:51:48;;;;;;;11.33;6.40;;;4.30;99.90;;;;;;5068856;28;20554;-79
2023/11/27 06:54:15;;;;;;;13.17;7.47;;;4.30;99.90;;;;;;5068728;28;20198;-81
2023/11/27 06:56:42;;;;;;;12.17;7.03;;;4.30;99.90;;;;;;5063377;28;20204;-80
2023/11/27 06:59:11;;;;;;;10.00;6.87;;;4.40;99.90;;;;;;5067987;28;20568;-82
2023/11/27 07:01:41;;;;;;;11.67;7.13;;;4.40;99.90;;;;;;5066340;28;20230;-82
2023/11/27 07:04:09;;;;;;;10.83;6.80;;;4.40;99.90;;;;;;5066586;28;20202;-80
2023/11/27 07:06:37;;;;;;;11.27;7.00;;;4.40;99.90;;;;;;5070322;28;20303;-81
2023/11/27 07:09:05;;;;;;;9.50;6.07;;;4.40;99.90;;;;;;5071277;28;20218;-82
2023/11/27 07:11:32;;;;;;;9.83;6.13;;;4.40;99.90;;;;;;5068596;28;20198;-82
2023/11/27 07:13:59;;;;;;;10.13;6.43;;;4.30;99.90;;;;;;5079863;28;20218;-80
2023/11/27 07:16:28;;;;;;;9.33;6.03;;;4.30;99.90;;;;;;5078846;28;20234;-81
2023/11/27 07:18:57;;;;;;;12.40;6.83;;;4.30;99.90;;;;;;5078467;28;20252;-80
2023/11/27 07:21:25;;;;;;;12.43;6.90;;;4.30;99.90;;;;;;5078232;28;20202;-81
2023/11/27 07:23:53;;;;;;;10.03;6.20;;;4.30;99.90;;;;;;5075359;28;20202;-82
2023/11/27 07:26:20;;;;;;;12.63;6.80;;;4.30;99.90;;;;;;5075072;28;20740;-81
2023/11/27 07:28:47;;;;;;;12.83;8.10;;;4.20;99.90;;;;;;5073147;28;20222;-79
2023/11/27 07:31:16;;;;;;;10.23;7.00;;;4.30;99.90;;;;;;5074805;28;20202;-80
2023/11/27 07:33:45;;;;;;;10.40;7.20;;;4.30;99.90;;;;;;5071719;28;20202;-79
2023/11/27 07:36:12;;;;;;;13.07;7.63;;;4.30;99.90;;;;;;5073202;28;20248;-78
2023/11/27 07:38:40;;;;;;;11.37;7.40;;;4.30;99.90;;;;;;5074094;28;20228;-80
2023/11/27 07:41:07;;;;;;;10.70;7.10;;;4.30;99.90;;;;;;5075741;28;20202;-79
2023/11/27 07:43:34;;;;;;;11.67;7.63;;;4.40;99.90;;;;;;5077014;28;20732;-80
2023/11/27 07:46:05;;;;;;;11.10;6.70;;;4.30;99.90;;;;;;5076520;28;20249;-80
2023/11/27 07:48:32;;;;;;;13.07;7.27;;;4.30;99.90;;;;;;5069400;28;20305;-79
2023/11/27 07:51:04;;;;;;;10.90;7.27;;;4.40;99.90;;;;;;5074734;28;20209;-79
2023/11/27 07:53:30;;;;;;;12.87;7.33;;;4.40;99.90;;;;;;5071146;28;20194;-79
2023/11/27 07:55:57;;;;;;;11.87;7.07;;;4.40;99.90;;;;;;5074893;28;20191;-80
2023/11/27 07:58:24;;;;;;;12.13;7.07;;;4.40;99.90;;;;;;5073311;28;20226;-80
2023/11/27 08:00:51;;;;;;;12.37;7.13;;;4.40;99.90;;;;;;5076494;28;20244;-80
2023/11/27 08:03:17;;;;;;;13.87;6.90;;;4.40;99.90;;;;;;5073604;28;20206;-80
2023/11/27 08:05:44;;;;;;;11.33;6.63;;;4.40;99.90;;;;;;5070317;28;20230;-79
2023/11/27 08:08:13;;;;;;;9.37;6.20;;;4.40;99.90;;;;;;5075845;28;20226;-79
2023/11/27 08:10:40;;;;;;;10.40;6.50;;;4.40;99.90;;;;;;5070612;28;20208;-78
2023/11/27 08:13:08;;;;;;;12.17;7.03;;;4.40;99.90;;;;;;5071761;28;20232;-78
2023/11/27 08:15:35;;;;;;;8.43;5.87;;;4.40;99.90;;;;;;5076187;28;20569;-78
2023/11/27 08:18:02;;;;;;;9.20;6.67;;;4.50;99.90;;;;;;5074293;28;20232;-79
2023/11/27 08:20:32;;;;;;;9.77;5.63;;;4.50;99.90;;;;;;5076109;28;20201;-80
2023/11/27 08:22:59;;;;;;;7.83;5.87;;;4.50;99.90;;;;;;5075470;28;20289;-79
2023/11/27 08:25:27;;;;;;;12.27;6.33;;;4.50;99.90;;;;;;5076949;28;20309;-79
2023/11/27 08:27:55;;;;;;;9.37;5.97;;;4.50;99.90;;;;;;5078421;28;20241;-81
2023/11/27 08:30:22;;;;;;;11.23;5.73;;;4.60;69.00;;;;;;5078817;28;20721;-81
2023/11/27 08:32:49;;;;;;;9.50;5.73;;;4.60;57.80;;;;;;5081617;28;20706;-80
2023/11/27 08:35:17;;;;;;;9.70;4.90;;;4.60;26.30;;;;;;5080927;28;20202;-81
2023/11/27 08:37:44;;;;;;;9.33;5.33;;;4.70;1.00;;;;;;5081233;28;20633;-81
2023/11/27 08:40:12;;;;;;;9.60;5.60;;;4.70;1.00;;;;;;5081069;28;20208;-80
2023/11/27 08:42:41;;;;;;;9.80;5.60;;;4.70;1.00;;;;;;5081479;28;20209;-80
2023/11/27 08:45:12;;;;;;;10.23;5.70;;;4.80;99.90;;;;;;5081008;28;20253;-80
2023/11/27 08:47:39;;;;;;;8.97;5.23;;;4.70;1.00;;;;;;5089034;28;20702;-82
2023/11/27 08:50:09;;;;;;;7.60;5.17;;;4.70;1.00;;;;;;5100315;28;20204;-82
2023/11/27 08:52:36;;;;;;;9.27;4.87;;;4.80;1.00;;;;;;5071142;28;20202;-80
2023/11/27 08:55:05;;;;;;;9.70;5.37;;;4.70;1.00;;;;;;5068854;28;20191;-80
2023/11/27 08:57:32;;;;;;;11.57;4.60;;;4.80;1.00;;;;;;5078308;28;20210;-80
2023/11/27 09:00:04;;;;;;;8.50;4.67;;;4.80;1.00;;;;;;5069870;28;20663;-81
2023/11/27 09:02:31;;;;;;;6.77;4.73;;;4.80;1.00;;;;;;5072683;28;20228;-80
2023/11/27 09:04:59;;;;;;;10.70;5.57;;;4.70;1.00;;;;;;5070084;28;20195;-80
2023/11/27 09:07:26;;;;;;;13.07;5.90;;;4.80;76.70;;;;;;5072632;28;20641;-80
2023/11/27 09:09:53;;;;;;;9.73;5.60;;;4.80;1.00;;;;;;5071575;28;20199;-80
2023/11/27 09:12:20;;;;;;;9.27;5.70;;;4.70;1.00;;;;;;5071280;28;20210;-79
2023/11/27 09:14:46;;;;;;;9.23;5.80;;;4.80;1.00;;;;;;5071441;28;20202;-79
2023/11/27 09:17:15;;;;;;;9.20;5.60;;;4.70;1.00;;;;;;5073772;28;20197;-81
2023/11/27 09:19:44;;;;;;;10.20;5.93;;;4.80;1.00;;;;;;5073063;28;20202;-80
2023/11/27 09:22:11;;;;;;;11.27;7.33;;;4.80;99.90;;;;;;5073649;28;20198;-79
2023/11/27 09:24:38;;;;;;;11.70;6.23;;;4.80;1.00;;;;;;5075413;28;20203;-80
2023/11/27 09:27:06;;;;;;;10.57;5.93;;;4.80;1.00;;;;;;5075273;28;20316;-79
2023/11/27 09:29:33;;;;;;;11.63;6.77;;;4.80;1.00;;;;;;5076857;28;20280;-79
2023/11/27 09:32:03;;;;;;;9.27;6.13;;;4.80;1.00;;;;;;5074714;28;20209;-79
2023/11/27 09:34:31;;;;;;;8.50;6.13;;;4.80;1.00;;;;;;5077828;28;20199;-80
2023/11/27 09:36:58;;;;;;;12.53;6.23;;;4.90;1.00;;;;;;5075728;28;20233;-79
2023/11/27 09:39:25;;;;;;;10.23;6.07;;;4.80;1.00;;;;;;5075743;28;20229;-80
2023/11/27 09:41:53;;;;;;;10.77;6.37;;;4.80;1.00;;;;;;5070554;28;20206;-80
2023/11/27 09:44:20;;;;;;;11.17;5.73;;;4.90;1.00;;;;;;5075066;28;20203;-81
2023/11/27 09:46:47;;;;;;;8.90;6.03;;;4.90;1.00;;;;;;5074568;28;20590;-81
2023/11/27 09:49:16;;;;;;;10.53;5.50;;;5.00;99.90;;;;;;5073891;28;20226;-80
2023/11/27 09:51:46;;;;;;;6.83;5.57;;;4.90;99.90;;;;;;5069763;28;20206;-80
2023/11/27 09:54:15;;;;;;;8.83;6.00;;;4.80;99.90;;;;;;5071625;28;20206;-79
2023/11/27 09:56:44;;;;;;;11.03;6.60;;;4.90;99.90;;;;;;5071668;28;20285;-80
2023/11/27 09:59:12;;;;;;;8.70;5.57;;;4.80;99.90;;;;;;5072099;28;20233;-80
2023/11/27 10:01:41;;;;;;;10.83;6.30;;;4.90;1.00;;;;;;5072231;28;20209;-79
2023/11/27 10:04:08;;;;;;;7.13;5.70;;;4.70;99.90;;;;;;5071209;28;20206;-80
2023/11/27 10:06:41;;;;;;;8.73;5.73;;;4.80;99.90;;;;;;5072906;28;20229;-80
2023/11/27 10:09:13;;;;;;;11.37;5.90;;;4.80;29.90;;;;;;5073364;28;20258;-80
2023/11/27 10:11:41;;;;;;;9.30;6.17;;;4.80;1.00;;;;;;5076546;28;20214;-82
2023/11/27 10:14:09;;;;;;;10.57;5.93;;;4.70;99.90;;;;;;5076882;28;20262;-81
2023/11/27 10:16:37;;;;;;;10.43;5.80;;;4.70;1.00;;;;;;5079830;28;20206;-80
2023/11/27 10:19:06;;;;;;;11.53;6.13;;;4.70;1.00;;;;;;5076081;28;20223;-80
2023/11/27 10:21:34;;;;;;;9.60;6.07;;;4.70;1.00;;;;;;5076878;28;20236;-80
2023/11/27 10:24:01;;;;;;;9.27;5.63;;;4.50;99.90;;;;;;5078095;28;20275;-79
2023/11/27 10:26:31;;;;;;;7.60;5.23;;;4.50;1.00;;;;;;5078930;28;20712;-79
2023/11/27 10:28:58;;;;;;;11.37;5.63;;;4.50;1.00;;;;;;5077964;28;20715;-79
2023/11/27 10:31:26;;;;;;;7.00;5.23;;;4.60;1.00;;;;;;5074834;28;20230;-80
2023/11/27 10:33:55;;;;;;;9.23;5.53;;;4.50;99.90;;;;;;5075902;28;20206;-80
2023/11/27 10:36:24;;;;;;;9.53;5.33;;;4.40;1.00;;;;;;5074271;28;20443;-81
2023/11/27 10:39:14;;;;;;;10.60;5.67;;;4.40;1.00;;;;;;5078732;28;20237;-80
2023/11/27 10:41:45;;;;;;;10.07;5.63;;;4.40;1.00;;;;;;5075019;28;20209;-82
2023/11/27 10:44:13;;;;;;;12.40;7.10;;;4.50;1.00;;;;;;5072540;28;20199;-81
2023/11/27 10:46:41;;;;;;;10.73;5.70;;;4.40;52.00;;;;;;5068857;28;20567;-79
2023/11/27 10:49:08;;;;;;;10.40;6.43;;;4.30;34.70;;;;;;5073605;28;20249;-79
2023/11/27 10:51:36;;;;;;;12.67;6.27;;;4.50;1.00;;;;;;5070459;28;20267;-81
2023/11/27 10:54:04;;;;;;;9.87;6.47;;;4.30;99.90;;;;;;5074520;28;20237;-80
2023/11/27 10:56:31;;;;;;;11.53;6.53;;;4.30;1.00;;;;;;5073167;28;20235;-81
2023/11/27 10:59:05;;;;;;;11.30;6.50;;;4.30;1.00;;;;;;5074065;28;20237;-80
2023/11/27 11:01:37;;;;;;;12.27;7.30;;;4.30;1.00;;;;;;5073263;28;20210;-82
2023/11/27 11:04:10;;;;;;;9.23;6.17;;;4.40;1.00;;;;;;5074224;28;20198;-78
2023/11/27 11:06:45;;;;;;;9.77;6.17;;;4.40;1.00;;;;;;5074437;28;20233;-82
2023/11/27 11:09:16;;;;;;;11.50;6.20;;;4.40;1.00;;;;;;5072725;28;20229;-81
2023/11/27 11:11:49;;;;;;;12.27;6.57;;;4.30;1.00;;;;;;5078919;28;20221;-81
2023/11/27 11:14:19;;;;;;;10.77;6.10;;;4.30;1.00;;;;;;5086207;28;20595;-81
2023/11/27 11:16:55;;;;;;;11.10;6.90;;;4.40;1.00;;;;;;5080670;28;20745;-80
2023/11/27 11:19:33;;;;;;;10.37;6.27;;;4.40;1.00;;;;;;5078044;28;20225;-81
2023/11/27 11:22:11;;;;;;;13.23;6.67;;;4.50;99.90;;;;;;5080590;28;20256;-80
2023/11/27 11:24:46;;;;;;;11.53;6.37;;;4.40;99.90;;;;;;5074297;28;20215;-80
2023/11/27 11:27:20;;;;;;;8.97;6.03;;;4.30;1.00;;;;;;5080751;28;20221;-80
2023/11/27 11:29:51;;;;;;;8.23;5.47;;;4.30;91.40;;;;;;5079807;28;20212;-80
2023/11/27 11:32:18;;;;;;;11.77;5.97;;;4.30;1.00;;;;;;5074836;28;20211;-82
2023/11/27 11:34:50;;;;;;;11.67;6.13;;;4.20;99.90;;;;;;5084421;28;20693;-80
2023/11/27 11:37:18;;;;;;;8.60;5.40;;;4.30;1.00;;;;;;5065753;28;20228;-81
2023/11/27 11:39:46;;;;;;;7.83;5.70;;;4.20;1.00;;;;;;5084871;28;20229;-81
2023/11/27 11:42:17;;;;;;;8.83;5.47;;;4.20;1.00;;;;;;5083247;28;20202;-80
2023/11/27 11:45:05;;;;;;;12.50;6.13;;;4.20;99.90;;;;;;5084126;28;20202;-79
2023/11/27 11:47:33;;;;;;;9.67;5.50;;;4.10;1.00;;;;;;5076079;28;20219;-79
2023/11/27 11:50:21;;;;;;;8.40;5.33;;;4.10;1.00;;;;;;5082553;28;20263;-80
2023/11/27 11:52:52;;;;;;;8.70;5.73;;;4.10;99.90;;;;;;5077635;28;20289;-80
2023/11/27 11:55:25;;;;;;;8.70;6.27;;;4.20;1.00;;;;;;5067324;28;20194;-80
2023/11/27 11:57:55;;;;;;;8.00;5.57;;;4.20;99.90;;;;;;5091045;28;20228;-79
2023/11/27 12:00:29;;;;;;;9.10;5.63;;;4.10;99.90;;;;;;5065375;28;20726;-80
2023/11/27 12:02:59;;;;;;;9.90;5.57;;;4.00;99.90;;;;;;5070706;28;20612;-80
2023/11/27 12:05:27;;;;;;;10.30;6.37;;;4.10;1.00;;;;;;5076083;28;20203;-81
2023/11/27 12:07:56;;;;;;;9.37;6.00;;;4.10;1.00;;;;;;5074800;28;20287;-80
2023/11/27 12:10:30;;;;;;;10.93;5.63;;;4.00;1.00;;;;;;5072296;28;20203;-81
2023/11/27 12:12:59;;;;;;;8.33;5.83;;;4.00;99.90;;;;;;5072128;28;20208;-80
2023/11/27 12:15:28;;;;;;;8.80;5.50;;;4.10;1.00;;;;;;5072025;28;20195;-80
2023/11/27 12:17:56;;;;;;;11.73;5.20;;;4.10;1.00;;;;;;5075389;28;20214;-80
2023/11/27 12:20:24;;;;;;;7.00;4.90;;;3.90;99.90;;;;;;5072610;28;20198;-80
2023/11/27 12:22:51;;;;;;;8.07;5.90;;;4.10;1.00;;;;;;5068064;28;20198;-81
2023/11/27 12:25:19;;;;;;;12.20;7.73;;;4.20;1.00;;;;;;5063141;28;20199;-80
2023/11/27 12:27:46;;;;;;;14.03;8.33;;;4.00;1.00;;;;;;5071886;28;20237;-79
2023/11/27 12:30:20;;;;;;;12.73;7.93;;;4.10;1.00;;;;;;5082231;28;20198;-80
2023/11/27 12:32:50;;;;;;;11.20;6.77;;;4.00;1.00;;;;;;5076772;28;20311;-80
2023/11/27 12:35:17;;;;;;;10.13;6.73;;;4.10;1.00;;;;;;5072010;28;20559;-80
2023/11/27 12:37:49;;;;;;;9.00;5.90;;;4.00;1.00;;;;;;5077508;28;20729;-81
2023/11/27 12:40:19;;;;;;;7.60;5.50;;;4.00;33.00;;;;;;5079023;28;20210;-82
2023/11/27 12:42:47;;;;;;;10.40;5.73;;;3.90;1.00;;;;;;5077555;28;20289;-80
2023/11/27 12:45:16;;;;;;;9.00;5.20;;;4.00;91.80;;;;;;5077299;28;20677;-79
2023/11/27 12:47:50;;;;;;;7.83;5.60;;;3.90;99.90;;;;;;5078484;28;20233;-80
2023/11/27 12:50:23;;;;;;;10.20;5.90;;;3.90;1.00;;;;;;5072183;28;20217;-81
2023/11/27 12:52:51;;;;;;;8.67;5.77;;;3.90;1.00;;;;;;5081602;28;20592;-82
2023/11/27 12:55:19;;;;;;;8.93;5.67;;;3.90;1.00;;;;;;5063328;28;20198;-79
2023/11/27 12:57:46;;;;;;;8.67;5.40;;;3.80;99.90;;;;;;5077241;28;20598;-80